createdAt,value
2023-05-02T00:02:10.239Z,85.50
2023-05-02T00:04:38.213Z,85.57
2023-05-02T00:07:06.892Z,86.07
2023-05-02T00:09:34.780Z,86.05
2023-05-02T00:12:02.558Z,85.98
2023-05-02T00:14:30.450Z,86.10
2023-05-02T00:16:58.270Z,85.90
2023-05-02T00:19:27.451Z,85.82
2023-05-02T00:21:55.249Z,85.80
2023-05-02T00:24:23.024Z,85.80
2023-05-02T00:26:50.757Z,85.87
2023-05-02T00:29:18.676Z,85.84
2023-05-02T00:31:46.502Z,85.71
2023-05-02T00:34:14.283Z,85.71
2023-05-02T00:36:43.452Z,85.65
2023-05-02T00:39:11.372Z,85.58
2023-05-02T00:41:39.122Z,85.82
2023-05-02T00:44:07.127Z,85.72
2023-05-02T00:46:35.798Z,86.17
2023-05-02T00:49:03.646Z,86.26
2023-05-02T00:51:31.622Z,86.72
2023-05-02T00:54:01.887Z,86.77
2023-05-02T00:56:29.675Z,87.82
2023-05-02T00:58:58.016Z,88.25
2023-05-02T01:01:35.048Z,88.82
2023-05-02T01:04:19.235Z,88.79
2023-05-02T01:06:54.766Z,89.14
2023-05-02T01:09:38.771Z,89.68
2023-05-02T01:12:17.068Z,89.62
2023-05-02T01:14:51.924Z,89.99
2023-05-02T01:17:21.859Z,90.26
2023-05-02T01:19:55.023Z,90.89
2023-05-02T01:22:25.460Z,91.50
2023-05-02T01:25:05.191Z,91.46
2023-05-02T01:27:42.382Z,91.38
2023-05-02T01:30:15.946Z,91.00
2023-05-02T01:32:46.446Z,90.29
2023-05-02T01:35:17.070Z,89.99
2023-05-02T01:37:46.777Z,89.81
2023-05-02T01:40:19.451Z,89.70
2023-05-02T01:42:49.955Z,89.43
2023-05-02T01:45:20.895Z,89.29
2023-05-02T01:47:48.982Z,89.16
2023-05-02T01:50:20.281Z,88.82
2023-05-02T01:52:50.488Z,88.46
2023-05-02T01:55:18.948Z,88.02
2023-05-02T01:57:50.491Z,88.18
2023-05-02T02:00:21.514Z,87.81
2023-05-02T02:02:52.320Z,88.17
2023-05-02T02:05:21.699Z,87.80
2023-05-02T02:07:50.088Z,87.57
2023-05-02T02:10:19.511Z,87.16
2023-05-02T02:12:54.365Z,87.17
2023-05-02T02:15:29.063Z,87.37
2023-05-02T02:18:01.597Z,87.62
2023-05-02T02:20:31.920Z,86.85
2023-05-02T02:23:03.507Z,86.97
2023-05-02T02:25:32.255Z,87.11
2023-05-02T02:28:00.427Z,87.08
2023-05-02T02:30:30.466Z,86.61
2023-05-02T02:32:58.268Z,86.06
2023-05-02T02:35:32.338Z,86.02
2023-05-02T02:38:09.678Z,85.32
2023-05-02T02:40:45.512Z,84.99
2023-05-02T02:43:20.441Z,84.52
2023-05-02T02:45:57.154Z,84.17
2023-05-02T02:48:34.030Z,83.64
2023-05-02T02:51:12.646Z,83.43
2023-05-02T02:53:50.692Z,83.10
2023-05-02T02:56:24.640Z,82.96
2023-05-02T02:58:58.582Z,82.77
2023-05-02T03:01:32.378Z,82.72
2023-05-02T03:04:00.686Z,82.20
2023-05-02T03:06:28.716Z,82.03
2023-05-02T03:08:57.703Z,81.93
2023-05-02T03:11:30.118Z,81.88
2023-05-02T03:13:59.055Z,82.28
2023-05-02T03:16:39.798Z,82.38
2023-05-02T03:19:11.727Z,82.33
2023-05-02T03:21:39.788Z,81.79
2023-05-02T03:24:13.811Z,82.11
2023-05-02T03:26:41.586Z,81.94
2023-05-02T03:29:11.879Z,82.16
2023-05-02T03:31:44.312Z,82.12
2023-05-02T03:34:13.089Z,82.00
2023-05-02T03:36:41.503Z,81.94
2023-05-02T03:39:09.285Z,81.98
2023-05-02T03:41:37.840Z,82.44
2023-05-02T03:44:09.293Z,82.32
2023-05-02T03:46:37.922Z,82.26
2023-05-02T03:49:10.928Z,81.95
2023-05-02T03:51:40.423Z,82.19
2023-05-02T03:54:09.852Z,82.28
2023-05-02T03:56:42.733Z,83.24
2023-05-02T03:59:20.559Z,83.13
2023-05-02T04:01:50.904Z,83.80
2023-05-02T04:04:22.374Z,83.75
2023-05-02T04:06:52.996Z,84.13
2023-05-02T04:09:25.091Z,84.49
2023-05-02T04:11:57.868Z,84.28
2023-05-02T04:14:25.781Z,84.24
2023-05-02T04:16:55.494Z,84.24
2023-05-02T04:19:35.230Z,84.22
2023-05-02T04:22:04.187Z,83.28
2023-05-02T04:24:35.848Z,82.86
2023-05-02T04:27:03.985Z,82.88
2023-05-02T04:29:32.300Z,82.24
2023-05-02T04:32:00.508Z,81.70
2023-05-02T04:34:30.362Z,81.62
2023-05-02T04:36:59.575Z,81.26
2023-05-02T04:39:27.364Z,81.83
2023-05-02T04:42:17.802Z,82.25
2023-05-02T04:44:59.159Z,82.29
2023-05-02T04:47:27.185Z,82.48
2023-05-02T04:49:55.002Z,82.00
2023-05-02T04:52:24.466Z,81.15
2023-05-02T04:54:52.361Z,80.26
2023-05-02T04:57:21.307Z,79.85
2023-05-02T04:59:54.562Z,79.49
2023-05-02T05:02:23.111Z,79.42
2023-05-02T05:04:51.110Z,79.76
2023-05-02T05:07:20.581Z,79.60
2023-05-02T05:09:53.399Z,79.23
2023-05-02T05:12:23.342Z,78.91
2023-05-02T05:14:51.596Z,78.40
2023-05-02T05:17:21.571Z,78.32
2023-05-02T05:19:49.413Z,78.29
2023-05-02T05:22:17.148Z,77.83
2023-05-02T05:24:53.735Z,77.82
2023-05-02T05:27:23.086Z,77.55
2023-05-02T05:29:50.913Z,77.43
2023-05-02T05:32:18.730Z,77.47
2023-05-02T05:34:46.888Z,77.02
2023-05-02T05:37:14.822Z,76.82
2023-05-02T05:39:42.888Z,77.21
2023-05-02T05:42:13.106Z,76.98
2023-05-02T05:44:42.636Z,77.24
2023-05-02T05:47:11.465Z,77.28
2023-05-02T05:49:39.312Z,77.17
2023-05-02T05:52:10.393Z,76.86
2023-05-02T05:54:38.407Z,76.72
2023-05-02T05:57:06.420Z,76.75
2023-05-02T05:59:37.538Z,76.60
2023-05-02T06:02:07.876Z,76.80
2023-05-02T06:04:35.769Z,76.91
2023-05-02T06:07:03.859Z,76.65
2023-05-02T06:09:31.639Z,76.50
2023-05-02T06:11:59.619Z,75.94
2023-05-02T06:14:36.908Z,75.82
2023-05-02T06:17:06.910Z,75.99
2023-05-02T06:19:34.765Z,75.54
2023-05-02T06:22:02.562Z,75.41
2023-05-02T06:24:30.317Z,75.21
2023-05-02T06:26:58.095Z,74.20
2023-05-02T06:29:25.830Z,73.71
2023-05-02T06:31:56.641Z,73.49
2023-05-02T06:34:25.868Z,73.13
2023-05-02T06:36:56.307Z,72.29
2023-05-02T06:39:24.241Z,71.63
2023-05-02T06:41:52.149Z,71.43
2023-05-02T06:44:19.930Z,70.56
2023-05-02T06:46:47.717Z,70.14
2023-05-02T06:49:15.533Z,69.46
2023-05-02T06:51:44.863Z,69.60
2023-05-02T06:54:12.750Z,69.39
2023-05-02T06:56:40.520Z,69.40
2023-05-02T06:59:08.267Z,69.25
2023-05-02T07:01:36.084Z,69.03
2023-05-02T07:04:04.401Z,69.38
2023-05-02T07:06:32.331Z,69.60
2023-05-02T07:09:01.500Z,69.76
2023-05-02T07:11:29.320Z,70.18
2023-05-02T07:13:57.709Z,70.00
2023-05-02T07:16:25.745Z,70.19
2023-05-02T07:18:53.567Z,69.89
2023-05-02T07:21:21.359Z,70.48
2023-05-02T07:23:49.147Z,70.43
2023-05-02T07:26:18.921Z,69.29
2023-05-02T07:28:46.668Z,68.12
2023-05-02T07:31:14.456Z,67.81
2023-05-02T07:33:42.291Z,68.45
2023-05-02T07:36:10.031Z,68.69
2023-05-02T07:38:37.871Z,68.70
2023-05-02T07:41:05.677Z,68.22
2023-05-02T07:43:34.894Z,68.33
2023-05-02T07:46:06.084Z,67.71
2023-05-02T07:48:34.117Z,67.47
2023-05-02T07:51:07.801Z,66.67
2023-05-02T07:53:35.668Z,66.48
2023-05-02T07:56:04.954Z,66.16
2023-05-02T07:58:34.094Z,66.15
2023-05-02T08:01:02.504Z,66.10
2023-05-02T08:03:30.613Z,65.91
2023-05-02T08:05:58.974Z,65.79
2023-05-02T08:08:26.739Z,65.09
2023-05-02T08:10:54.483Z,64.20
2023-05-02T08:13:22.246Z,63.71
2023-05-02T08:15:51.532Z,63.89
2023-05-02T08:18:19.330Z,63.46
2023-05-02T08:20:48.254Z,63.34
2023-05-02T08:23:16.122Z,63.37
2023-05-02T08:25:43.972Z,63.06
2023-05-02T08:28:11.761Z,63.41
2023-05-02T08:30:39.486Z,62.42
2023-05-02T08:33:08.613Z,62.23
2023-05-02T08:35:36.458Z,62.11
2023-05-02T08:38:04.213Z,61.87
2023-05-02T08:40:42.174Z,61.77
2023-05-02T08:43:12.335Z,61.27
2023-05-02T08:45:41.752Z,60.34
2023-05-02T08:48:13.220Z,59.66
2023-05-02T08:50:43.547Z,58.70
2023-05-02T08:53:12.333Z,58.19
2023-05-02T08:55:41.652Z,58.12
2023-05-02T08:58:10.644Z,56.77
2023-05-02T09:00:40.997Z,56.42
2023-05-02T09:03:23.777Z,56.02
2023-05-02T09:05:53.755Z,57.02
2023-05-02T09:08:24.237Z,55.35
2023-05-02T09:10:52.636Z,54.61
2023-05-02T09:13:31.969Z,53.72
2023-05-02T09:16:02.258Z,52.66
2023-05-02T09:18:33.607Z,52.99
2023-05-02T09:21:02.760Z,52.48
2023-05-02T09:23:34.757Z,52.22
2023-05-02T09:26:02.735Z,50.11
2023-05-02T09:28:42.052Z,50.52
2023-05-02T09:31:11.189Z,50.45
2023-05-02T09:33:40.598Z,49.89
2023-05-02T09:36:09.977Z,49.68
2023-05-02T09:38:37.805Z,49.38
2023-05-02T09:41:05.920Z,48.54
2023-05-02T09:43:33.940Z,48.70
2023-05-02T09:46:04.118Z,46.04
2023-05-02T09:48:33.640Z,43.80
2023-05-02T09:51:02.815Z,44.96
2023-05-02T09:53:30.582Z,44.29
2023-05-02T09:56:02.356Z,43.77
2023-05-02T09:58:31.455Z,42.38
2023-05-02T10:01:00.398Z,42.86
2023-05-02T10:03:29.370Z,42.66
2023-05-02T10:05:58.069Z,42.51
2023-05-02T10:08:29.185Z,42.60
2023-05-02T10:10:58.354Z,43.19
2023-05-02T10:13:32.571Z,40.81
2023-05-02T10:16:02.995Z,40.29
2023-05-02T10:18:49.327Z,41.07
2023-05-02T10:21:18.745Z,40.68
2023-05-02T10:23:48.950Z,39.32
2023-05-02T10:26:18.921Z,39.84
2023-05-02T10:28:47.045Z,40.60
2023-05-02T10:31:16.207Z,39.55
2023-05-02T10:33:44.500Z,38.47
2023-05-02T10:36:14.063Z,36.71
2023-05-02T10:38:43.203Z,37.12
2023-05-02T10:41:17.280Z,38.71
2023-05-02T10:43:49.041Z,37.75
2023-05-02T10:46:33.782Z,37.90
2023-05-02T10:49:03.252Z,35.76
2023-05-02T10:51:32.396Z,35.35
2023-05-02T10:54:21.563Z,35.87
2023-05-02T10:57:09.568Z,38.02
2023-05-02T10:59:39.508Z,36.66
2023-05-02T11:02:45.858Z,36.47
2023-05-02T11:05:13.576Z,37.77
2023-05-02T11:07:41.400Z,35.55
2023-05-02T11:10:28.545Z,35.57
2023-05-02T11:13:01.127Z,34.16
2023-05-02T11:15:57.820Z,36.33
2023-05-02T11:18:25.706Z,35.61
2023-05-02T11:20:53.630Z,34.36
2023-05-02T11:23:28.094Z,34.75
2023-05-02T11:25:57.524Z,34.65
2023-05-02T11:28:43.352Z,35.96
2023-05-02T11:31:46.547Z,35.31
2023-05-02T11:34:14.877Z,34.81
2023-05-02T11:36:43.367Z,34.33
2023-05-02T11:39:20.557Z,34.97
2023-05-02T11:41:51.017Z,34.62
2023-05-02T11:44:20.169Z,33.82
2023-05-02T11:46:48.063Z,33.53
2023-05-02T11:49:16.408Z,32.97
2023-05-02T11:51:44.390Z,31.88
2023-05-02T11:54:20.182Z,33.47
2023-05-02T11:56:48.400Z,32.62
2023-05-02T11:59:16.555Z,31.59
2023-05-02T12:01:50.237Z,32.03
2023-05-02T12:04:21.844Z,32.73
2023-05-02T12:06:56.869Z,32.60
2023-05-02T12:09:24.771Z,33.18
2023-05-02T12:11:56.017Z,32.63
2023-05-02T12:14:30.658Z,32.63
2023-05-02T12:17:00.660Z,31.55
2023-05-02T12:19:28.858Z,32.10
2023-05-02T12:21:56.732Z,31.32
2023-05-02T12:24:24.730Z,31.86
2023-05-02T12:27:10.280Z,32.98
2023-05-02T12:29:42.841Z,31.39
2023-05-02T12:32:12.242Z,31.81
2023-05-02T12:34:41.442Z,31.04
2023-05-02T12:37:10.171Z,31.48
2023-05-02T12:39:39.357Z,30.66
2023-05-02T12:42:11.658Z,31.50
2023-05-02T12:44:40.173Z,31.70
2023-05-02T12:47:08.849Z,32.17
2023-05-02T12:49:51.514Z,31.38
2023-05-02T12:52:19.557Z,32.71
2023-05-02T12:54:47.314Z,30.76
2023-05-02T12:57:25.700Z,31.25
2023-05-02T12:59:54.681Z,29.84
2023-05-02T13:02:22.891Z,30.28
2023-05-02T13:04:52.826Z,30.34
2023-05-02T13:07:20.670Z,30.67
2023-05-02T13:09:48.501Z,29.94
2023-05-02T13:12:16.670Z,30.37
2023-05-02T13:14:44.534Z,30.31
2023-05-02T13:17:12.783Z,30.38
2023-05-02T13:19:44.609Z,29.39
2023-05-02T13:22:19.921Z,28.86
2023-05-02T13:24:47.726Z,27.64
2023-05-02T13:27:18.315Z,28.40
2023-05-02T13:29:46.148Z,28.03
2023-05-02T13:32:14.078Z,28.20
2023-05-02T13:34:41.954Z,29.43
2023-05-02T13:37:09.958Z,29.46
2023-05-02T13:39:39.059Z,28.74
2023-05-02T13:42:07.957Z,28.47
2023-05-02T13:44:36.444Z,28.81
2023-05-02T13:47:04.366Z,28.31
2023-05-02T13:49:32.146Z,28.87
2023-05-02T13:51:59.918Z,29.90
2023-05-02T13:54:27.906Z,29.15
2023-05-02T13:56:57.068Z,29.01
2023-05-02T13:59:24.874Z,28.13
2023-05-02T14:01:52.687Z,27.77
2023-05-02T14:04:22.233Z,27.26
2023-05-02T14:06:50.889Z,28.64
2023-05-02T14:09:18.681Z,28.42
2023-05-02T14:11:47.285Z,28.27
2023-05-02T14:14:16.475Z,27.91
2023-05-02T14:16:44.343Z,26.38
2023-05-02T14:19:12.102Z,28.02
2023-05-02T14:21:39.907Z,28.52
2023-05-02T14:24:07.947Z,27.83
2023-05-02T14:26:35.884Z,28.21
2023-05-02T14:29:03.666Z,27.79
2023-05-02T14:31:32.852Z,27.08
2023-05-02T14:34:00.651Z,26.70
2023-05-02T14:36:28.401Z,26.54
2023-05-02T14:38:56.170Z,27.52
2023-05-02T14:41:24.035Z,27.30
2023-05-02T14:43:53.210Z,27.70
2023-05-02T14:46:21.069Z,29.01
2023-05-02T14:48:50.301Z,28.31
2023-05-02T14:51:18.110Z,29.49
2023-05-02T14:53:45.897Z,29.28
2023-05-02T14:56:15.978Z,29.78
2023-05-02T14:58:43.859Z,29.34
2023-05-02T15:01:18.482Z,30.05
2023-05-02T15:04:04.395Z,30.36
2023-05-02T15:06:35.550Z,30.57
2023-05-02T15:09:04.077Z,30.80
2023-05-02T15:11:31.936Z,30.39
2023-05-02T15:13:59.819Z,30.71
2023-05-02T15:16:27.839Z,30.63
2023-05-02T15:18:55.796Z,30.80
2023-05-02T15:21:23.775Z,31.64
2023-05-02T15:23:53.006Z,33.05
2023-05-02T15:26:21.275Z,32.46
2023-05-02T15:28:49.117Z,33.32
2023-05-02T15:31:16.936Z,32.96
2023-05-02T15:33:44.723Z,32.12
2023-05-02T15:36:12.560Z,32.39
2023-05-02T15:38:42.606Z,32.68
2023-05-02T15:41:12.106Z,32.51
2023-05-02T15:43:39.962Z,33.18
2023-05-02T15:46:07.766Z,34.20
2023-05-02T15:48:35.830Z,33.73
2023-05-02T15:51:05.391Z,33.97
2023-05-02T15:53:34.611Z,34.76
2023-05-02T15:56:02.453Z,35.18
2023-05-02T15:58:31.556Z,35.60
2023-05-02T16:00:59.306Z,34.45
2023-05-02T16:03:27.300Z,34.32
2023-05-02T16:05:56.047Z,34.31
2023-05-02T16:08:23.812Z,34.93
2023-05-02T16:10:51.564Z,35.52
2023-05-02T16:13:19.583Z,34.91
2023-05-02T16:15:49.234Z,34.89
2023-05-02T16:18:17.171Z,36.08
2023-05-02T16:20:45.220Z,35.35
2023-05-02T16:23:13.001Z,35.19
2023-05-02T16:25:40.875Z,36.07
2023-05-02T16:28:08.764Z,36.66
2023-05-02T16:30:37.499Z,36.85
2023-05-02T16:33:07.101Z,37.02
2023-05-02T16:35:34.998Z,36.94
2023-05-02T16:38:03.996Z,37.68
2023-05-02T16:40:33.980Z,37.74
2023-05-02T16:43:01.824Z,37.53
2023-05-02T16:45:29.712Z,37.39
2023-05-02T16:47:58.046Z,37.88
2023-05-02T16:50:27.374Z,37.76
2023-05-02T16:52:55.148Z,38.11
2023-05-02T16:55:23.115Z,38.64
2023-05-02T16:57:50.890Z,38.44
2023-05-02T17:00:19.340Z,38.23
2023-05-02T17:02:47.547Z,38.69
2023-05-02T17:05:15.745Z,38.66
2023-05-02T17:07:45.223Z,38.47
2023-05-02T17:10:13.141Z,38.96
2023-05-02T17:12:40.972Z,39.08
2023-05-02T17:15:09.553Z,38.99
2023-05-02T17:17:37.389Z,38.81
2023-05-02T17:20:06.351Z,38.28
2023-05-02T17:22:35.607Z,38.96
2023-05-02T17:25:06.282Z,39.50
2023-05-02T17:27:34.171Z,40.00
2023-05-02T17:30:02.265Z,39.16
2023-05-02T17:32:30.213Z,39.34
2023-05-02T17:34:58.807Z,40.15
2023-05-02T17:37:26.765Z,40.52
2023-05-02T17:39:54.551Z,40.50
2023-05-02T17:42:23.753Z,40.92
2023-05-02T17:44:53.436Z,40.78
2023-05-02T17:47:22.050Z,40.71
2023-05-02T17:49:53.160Z,40.84
2023-05-02T17:52:21.357Z,41.44
2023-05-02T17:54:49.239Z,41.66
2023-05-02T17:57:17.075Z,41.14
2023-05-02T17:59:46.304Z,41.49
2023-05-02T18:02:15.654Z,41.52
2023-05-02T18:04:45.309Z,41.80
2023-05-02T18:07:13.270Z,42.16
2023-05-02T18:09:41.061Z,42.30
2023-05-02T18:12:09.640Z,42.36
2023-05-02T18:14:37.444Z,43.11
2023-05-02T18:17:09.791Z,43.20
2023-05-02T18:19:37.786Z,42.86
2023-05-02T18:22:05.864Z,42.94
2023-05-02T18:24:37.747Z,43.33
2023-05-02T18:27:05.896Z,43.46
2023-05-02T18:29:36.903Z,43.47
2023-05-02T18:32:06.322Z,43.36
2023-05-02T18:34:36.991Z,43.66
2023-05-02T18:37:06.995Z,43.81
2023-05-02T18:39:35.676Z,44.25
2023-05-02T18:42:04.091Z,44.08
2023-05-02T18:44:32.191Z,44.50
2023-05-02T18:47:00.945Z,44.70
2023-05-02T18:49:30.103Z,44.98
2023-05-02T18:51:57.916Z,44.94
2023-05-02T18:54:27.809Z,45.56
2023-05-02T18:56:55.620Z,46.05
2023-05-02T18:59:23.441Z,46.44
2023-05-02T19:01:51.709Z,46.55
2023-05-02T19:04:19.694Z,46.61
2023-05-02T19:06:49.140Z,46.93
2023-05-02T19:09:18.551Z,47.06
2023-05-02T19:11:46.289Z,47.27
2023-05-02T19:14:14.092Z,46.84
2023-05-02T19:16:41.891Z,47.22
2023-05-02T19:19:09.705Z,47.45
2023-05-02T19:21:37.501Z,47.77
2023-05-02T19:24:07.159Z,48.62
2023-05-02T19:26:34.977Z,48.61
2023-05-02T19:29:03.058Z,49.00
2023-05-02T19:31:31.476Z,48.92
2023-05-02T19:34:00.109Z,49.20
2023-05-02T19:36:28.442Z,49.19
2023-05-02T19:38:58.098Z,49.45
2023-05-02T19:41:27.612Z,49.33
2023-05-02T19:43:56.904Z,49.72
2023-05-02T19:46:24.722Z,49.93
2023-05-02T19:48:52.538Z,50.00
2023-05-02T19:51:25.282Z,50.34
2023-05-02T19:53:53.860Z,51.01
2023-05-02T19:56:25.288Z,51.04
2023-05-02T19:58:54.833Z,51.05
2023-05-02T20:01:22.754Z,51.13
2023-05-02T20:03:50.869Z,51.05
2023-05-02T20:06:18.915Z,51.54
2023-05-02T20:08:46.734Z,51.53
2023-05-02T20:11:14.652Z,51.93
2023-05-02T20:13:42.476Z,52.69
2023-05-02T20:16:11.898Z,52.82
2023-05-02T20:18:39.735Z,52.92
2023-05-02T20:21:07.651Z,53.22
2023-05-02T20:23:35.532Z,53.46
2023-05-02T20:26:03.461Z,53.88
2023-05-02T20:28:31.479Z,53.43
2023-05-02T20:30:59.254Z,53.57
2023-05-02T20:33:41.245Z,54.18
2023-05-02T20:36:13.369Z,54.52
2023-05-02T20:38:42.340Z,54.23
2023-05-02T20:41:12.660Z,54.29
2023-05-02T20:43:41.501Z,54.18
2023-05-02T20:46:13.436Z,54.40
2023-05-02T20:48:42.717Z,54.96
2023-05-02T20:51:10.582Z,54.90
2023-05-02T20:53:38.391Z,54.91
2023-05-02T20:56:06.788Z,55.11
2023-05-02T20:58:36.580Z,55.30
2023-05-02T21:01:04.477Z,55.37
2023-05-02T21:03:36.508Z,55.78
2023-05-02T21:06:05.999Z,55.72
2023-05-02T21:08:33.799Z,55.43
2023-05-02T21:11:01.594Z,55.89
2023-05-02T21:13:29.361Z,55.96
2023-05-02T21:15:57.226Z,56.11
2023-05-02T21:18:25.007Z,56.31
2023-05-02T21:20:52.752Z,56.22
2023-05-02T21:23:21.899Z,56.32
2023-05-02T21:25:49.630Z,56.21
2023-05-02T21:28:17.368Z,56.43
2023-05-02T21:30:45.144Z,56.67
2023-05-02T21:33:14.813Z,56.96
2023-05-02T21:35:42.566Z,57.54
2023-05-02T21:38:10.489Z,57.78
2023-05-02T21:40:40.305Z,58.21
2023-05-02T21:43:08.063Z,58.60
2023-05-02T21:45:35.820Z,58.78
2023-05-02T21:48:03.661Z,59.01
2023-05-02T21:50:31.491Z,58.87
2023-05-02T21:52:59.245Z,59.67
2023-05-02T21:55:27.176Z,59.70
2023-05-02T21:57:56.297Z,59.98
2023-05-02T22:00:24.280Z,59.53
2023-05-02T22:02:52.227Z,60.02
2023-05-02T22:05:20.107Z,60.19
2023-05-02T22:07:49.527Z,60.12
2023-05-02T22:10:17.782Z,60.13
2023-05-02T22:12:45.606Z,60.11
2023-05-02T22:15:15.110Z,60.14
2023-05-02T22:17:43.496Z,60.60
2023-05-02T22:20:13.061Z,60.52
2023-05-02T22:22:41.306Z,60.83
2023-05-02T22:25:09.825Z,60.60
2023-05-02T22:27:37.610Z,60.85
2023-05-02T22:30:06.164Z,60.77
2023-05-02T22:32:35.445Z,60.80
2023-05-02T22:35:03.873Z,61.30
2023-05-02T22:37:31.665Z,61.43
2023-05-02T22:39:59.764Z,61.42
2023-05-02T22:42:27.700Z,61.67
2023-05-02T22:44:55.529Z,61.90
2023-05-02T22:47:23.285Z,61.82
2023-05-02T22:49:56.736Z,62.06
2023-05-02T22:52:27.272Z,62.19
2023-05-02T22:54:55.273Z,62.26
2023-05-02T22:57:23.110Z,62.36
2023-05-02T22:59:50.925Z,62.30
2023-05-02T23:02:18.741Z,62.65
2023-05-02T23:04:46.495Z,62.50
2023-05-02T23:07:15.649Z,62.34
2023-05-02T23:09:43.399Z,63.05
2023-05-02T23:12:11.195Z,62.91
2023-05-02T23:14:38.938Z,63.02
2023-05-02T23:17:06.727Z,63.15
2023-05-02T23:19:34.562Z,63.29
2023-05-02T23:22:02.458Z,63.73
2023-05-02T23:24:31.571Z,63.77
2023-05-02T23:26:59.367Z,63.94
2023-05-02T23:29:27.274Z,63.87
2023-05-02T23:31:55.560Z,63.91
2023-05-02T23:34:23.643Z,64.50
2023-05-02T23:36:52.737Z,64.83
2023-05-02T23:39:21.036Z,64.75
2023-05-02T23:41:50.207Z,65.17
2023-05-02T23:44:18.012Z,65.44
2023-05-02T23:46:45.878Z,65.76
2023-05-02T23:49:13.649Z,65.63
2023-05-02T23:51:41.692Z,65.68
2023-05-02T23:54:09.474Z,65.76
2023-05-02T23:56:37.305Z,65.91
2023-05-02T23:59:06.507Z,66.00
